Niagara, Wisconsin
Current Conditions -  °F | °C
As of 10:42 PM on Saturday 22 Nov 2014 (Local Time) from KIMT Reporting Station
Haze Haze  
Wind Chill: 29°   Ceiling: 300
Heat Index: 35°   Visibility: 2.5mi
Dew Point: 33°   Wind: 7mph
Humidity: 92%   Direction: 160°SSE
Pressure: 29.7"   Gusts: NA
Location:  45.77°N, 87.99°W
Report Text: KIMT 230442Z AUTO 16006KT 2 1/2SM BR OVC003 02/01 A2970 RMK AO2 T00170006
Loading
Personal Weather Stations






























Interactive Weather Map New forecast layout! Learn more

10-Day Weather Forecast

Advertisements
Track Severe Weather on mobile